Time;durP1;ratioP1;P1;durP2;ratioP2;P2;SDS_P1;SDS_P2;PMS_P1;PMS_P2;Temp;Humidity;BMP_temperature;BMP_pressure;BME280_temperature;BME280_humidity;BME280_pressure;Samples;Min_cycle;Max_cycle;Signal;HPM_P1;HPM_P2
2021/04/11 00:01:15;;;;;;;8.63;7.82;;;;;;;30.32;47.05;101170.09;5017827;28;66354;-43
2021/04/11 00:03:45;;;;;;;9.02;8.15;;;;;;;30.31;46.78;101169.22;5017371;28;70214;-43
2021/04/11 00:06:17;;;;;;;8.55;7.70;;;;;;;30.41;46.83;101185.06;5019233;28;66418;-43
2021/04/11 00:08:50;;;;;;;10.73;8.25;;;;;;;30.41;47.09;101185.06;5007098;28;69384;-42
2021/04/11 00:11:21;;;;;;;9.02;7.57;;;;;;;30.49;47.20;101188.38;5005091;28;65424;-43
2021/04/11 00:13:55;;;;;;;17.52;7.85;;;;;;;30.46;47.79;101182.56;5005217;28;69829;-43
2021/04/11 00:16:25;;;;;;;10.48;7.00;;;;;;;30.47;47.78;101184.22;5008396;28;65949;-43
2021/04/11 00:18:55;;;;;;;14.98;7.47;;;;;;;30.47;48.21;101187.75;5003484;28;70589;-43
2021/04/11 00:21:24;;;;;;;9.27;8.20;;;;;;;30.60;48.48;101196.91;5004695;28;65394;-41
2021/04/11 00:23:54;;;;;;;11.85;8.73;;;;;;;30.59;49.94;101198.78;4999840;28;69634;-41
2021/04/11 00:26:26;;;;;;;15.52;11.02;;;;;;;30.58;51.74;101202.50;5003317;28;66400;-41
2021/04/11 00:28:58;;;;;;;20.27;14.05;;;;;;;30.64;53.44;101207.09;5007302;28;69729;-40
2021/04/11 00:31:28;;;;;;;34.58;15.98;;;;;;;30.64;53.12;101211.66;4999357;28;66048;-41
2021/04/11 00:33:58;;;;;;;35.25;16.40;;;;;;;30.69;53.41;101214.59;5014274;28;70278;-41
2021/04/11 00:36:27;;;;;;;38.22;16.25;;;;;;;30.69;54.95;101212.69;5000980;28;65060;-41
2021/04/11 00:39:00;;;;;;;45.30;15.40;;;;;;;30.71;54.70;101209.78;4995344;28;70025;-41
2021/04/11 00:41:31;;;;;;;27.98;14.32;;;;;;;30.76;54.37;101219.97;5011636;28;65067;-45
2021/04/11 00:44:03;;;;;;;33.58;13.57;;;;;;;30.72;55.47;101225.81;5001876;28;70035;-39
2021/04/11 00:46:44;;;;;;;32.47;14.02;;;;;;;30.78;55.07;101217.91;5002276;28;66132;-39
2021/04/11 00:49:26;;;;;;;36.25;13.68;;;;;;;30.40;54.90;101159.03;5008883;28;69978;-39
2021/04/11 00:51:55;;;;;;;22.33;11.97;;;;;;;30.88;53.82;101230.00;5014938;28;66093;-40
2021/04/11 00:54:25;;;;;;;20.75;11.35;;;;;;;30.91;53.71;101223.31;5015646;28;69816;-39
2021/04/11 00:56:55;;;;;;;17.95;11.23;;;;;;;30.96;53.21;101228.13;5002310;28;65902;-38
2021/04/11 00:59:26;;;;;;;18.33;11.00;;;;;;;30.99;53.46;101222.25;5008204;28;70055;-40
2021/04/11 01:01:59;;;;;;;18.77;10.07;;;;;;;31.01;53.25;101237.25;5009004;28;66377;-40
2021/04/11 01:04:29;;;;;;;16.33;10.68;;;;;;;31.08;53.17;101239.94;5005526;28;69832;-40
2021/04/11 01:07:07;;;;;;;19.95;11.43;;;;;;;30.77;53.03;101194.56;5013052;28;66733;-40
2021/04/11 01:09:52;;;;;;;20.88;11.95;;;;;;;31.22;52.74;101248.88;4999243;28;70133;-40
2021/04/11 01:12:24;;;;;;;21.92;13.23;;;;;;;30.93;52.45;101194.16;5003451;28;66081;-40
2021/04/11 01:14:55;;;;;;;24.35;14.95;;;;;;;31.16;52.71;101237.81;5005664;28;69425;-40
2021/04/11 01:17:28;;;;;;;22.67;16.33;;;;;;;31.23;52.05;101253.22;4998310;28;65955;-39
2021/04/11 01:20:01;;;;;;;32.47;15.60;;;;;;;31.14;52.99;101244.50;5025603;28;70161;-40
2021/04/11 01:23:09;;;;;;;24.48;14.32;;;;;;;31.14;53.40;101266.19;5028659;28;66243;-40
2021/04/11 01:25:42;;;;;;;26.23;14.40;;;;;;;31.11;53.28;101264.72;5006680;28;69971;-40
2021/04/11 01:28:21;;;;;;;25.30;13.48;;;;;;;31.16;53.32;101281.19;5017108;28;66192;-39
2021/04/11 01:30:58;;;;;;;20.38;12.75;;;;;;;31.23;53.06;101274.91;4995593;28;69637;-40
2021/04/11 01:33:29;;;;;;;24.98;14.70;;;;;;;31.20;52.40;101276.16;5021749;28;65765;-38
2021/04/11 01:36:01;;;;;;;27.25;14.65;;;;;;;30.87;52.60;101201.25;5028490;28;70498;-40
2021/04/11 01:38:35;;;;;;;30.40;14.93;;;;;;;31.23;52.25;101247.81;5018347;28;66182;-40
2021/04/11 01:41:16;;;;;;;19.30;14.52;;;;;;;31.36;53.21;101266.75;5010714;28;70155;-39
2021/04/11 01:43:47;;;;;;;32.38;15.05;;;;;;;31.41;53.02;101266.97;5017322;28;66564;-39
2021/04/11 01:46:23;;;;;;;20.27;14.07;;;;;;;31.20;52.85;101226.56;5004640;28;70090;-39
2021/04/11 01:48:54;;;;;;;24.30;14.35;;;;;;;31.45;52.80;101273.59;5006317;28;64968;-39
2021/04/11 01:51:31;;;;;;;27.77;14.35;;;;;;;31.46;53.44;101275.28;5015887;28;69370;-39
2021/04/11 01:54:06;;;;;;;20.38;12.55;;;;;;;31.50;53.12;101267.53;5003506;28;65151;-39
2021/04/11 01:56:47;;;;;;;22.00;13.98;;;;;;;31.22;52.96;101221.75;5027090;28;69895;-39
2021/04/11 01:59:29;;;;;;;29.48;13.73;;;;;;;31.23;52.52;101210.72;4998341;28;66701;-40
2021/04/11 02:02:05;;;;;;;13.75;11.43;;;;;;;31.60;51.81;101266.03;4995858;28;69940;-40
2021/04/11 02:04:35;;;;;;;13.77;11.15;;;;;;;31.67;51.61;101263.28;5006802;28;66026;-40
2021/04/11 02:07:10;;;;;;;20.85;11.80;;;;;;;31.34;51.04;101207.34;5006519;28;69443;-39
2021/04/11 02:09:47;;;;;;;15.13;11.85;;;;;;;31.79;51.41;101258.03;5008869;28;65988;-39
2021/04/11 02:12:34;;;;;;;21.60;13.38;;;;;;;31.86;50.82;101269.66;5004323;28;69197;-40
2021/04/11 02:15:23;;;;;;;19.80;12.25;;;;;;;31.93;50.50;101264.19;4996686;28;65982;-39
2021/04/11 02:17:58;;;;;;;24.60;11.77;;;;;;;31.88;50.91;101240.44;5013771;28;69063;-40
2021/04/11 02:20:32;;;;;;;23.83;12.18;;;;;;;31.95;50.86;101257.50;5003977;28;66170;-39
2021/04/11 02:23:04;;;;;;;28.90;12.68;;;;;;;32.03;50.44;101254.53;4998234;28;69908;-39
2021/04/11 02:25:40;;;;;;;19.17;12.40;;;;;;;31.99;50.49;101247.91;5010704;28;65978;-39
2021/04/11 02:28:13;;;;;;;19.70;12.25;;;;;;;31.97;50.59;101236.44;5007550;28;68702;-39
2021/04/11 02:31:18;;;;;;;29.15;11.90;;;;;;;32.20;50.58;101267.56;5015113;28;65332;-39
2021/04/11 02:34:06;;;;;;;17.83;11.73;;;;;;;31.95;50.58;101203.25;5008722;28;69494;-39
2021/04/11 02:36:46;;;;;;;22.42;11.50;;;;;;;32.22;50.60;101252.72;4997938;28;66142;-38
2021/04/11 02:39:26;;;;;;;20.23;11.80;;;;;;;31.96;50.60;101204.09;5009085;28;69812;-38
2021/04/11 02:42:01;;;;;;;20.30;12.10;;;;;;;32.36;50.24;101252.63;5018685;28;66418;-38
2021/04/11 02:44:37;;;;;;;19.17;10.40;;;;;;;32.12;50.30;101208.13;5010984;28;69027;-37
2021/04/11 02:47:10;;;;;;;13.95;10.43;;;;;;;32.45;50.12;101249.41;5008110;28;66182;-38
2021/04/11 02:49:42;;;;;;;24.25;10.43;;;;;;;32.45;49.47;101254.84;5008455;28;69555;-38
2021/04/11 02:52:33;;;;;;;11.73;9.40;;;;;;;32.49;49.16;101252.56;5026549;28;65152;-39
2021/04/11 02:55:04;;;;;;;15.00;10.02;;;;;;;32.58;48.76;101259.38;4984911;28;70622;-38
2021/04/11 02:57:34;;;;;;;13.45;9.65;;;;;;;32.57;48.58;101243.28;4999362;28;65972;-38
2021/04/11 03:00:13;;;;;;;19.80;10.13;;;;;;;32.62;48.53;101248.88;4998835;28;69929;-38
2021/04/11 03:02:46;;;;;;;13.97;10.13;;;;;;;32.69;48.46;101252.38;5013902;28;66649;-39
2021/04/11 03:05:23;;;;;;;16.15;9.85;;;;;;;32.52;48.41;101229.56;5014841;28;69313;-39
2021/04/11 03:08:06;;;;;;;11.02;9.05;;;;;;;32.70;48.12;101248.59;5013566;28;66236;-39
2021/04/11 03:10:54;;;;;;;13.95;9.85;;;;;;;32.77;48.32;101243.09;5014142;28;69348;-39
2021/04/11 03:13:27;;;;;;;11.68;9.93;;;;;;;32.73;48.22;101242.69;5000795;28;65370;-38
2021/04/11 03:15:59;;;;;;;18.08;10.30;;;;;;;32.78;48.42;101239.31;5005423;28;69726;-38
2021/04/11 03:18:33;;;;;;;14.73;9.45;;;;;;;32.84;48.40;101244.69;5003861;28;66489;-38
2021/04/11 03:21:06;;;;;;;10.18;9.15;;;;;;;32.77;48.53;101237.66;5029141;28;69918;-39
2021/04/11 03:23:37;;;;;;;18.88;12.27;;;;;;;32.83;48.80;101245.75;5008968;28;66123;-39
2021/04/11 03:56:44;;;;;;;21.10;11.50;;;;;;;32.80;50.49;101191.84;5065590;27;43045;-38
2021/04/11 03:59:26;;;;;;;22.05;10.63;;;;;;;32.92;50.11;101198.19;5047887;28;69798;-37
2021/04/11 04:02:00;;;;;;;15.52;11.07;;;;;;;32.88;49.49;101191.56;5047879;28;65437;-37
2021/04/11 04:04:41;;;;;;;15.77;10.07;;;;;;;32.61;49.14;101180.16;5048369;28;70080;-36
2021/04/11 04:07:19;;;;;;;17.92;10.35;;;;;;;32.57;48.87;101191.66;5043279;28;67124;-38
2021/04/11 04:10:04;;;;;;;27.10;10.32;;;;;;;32.50;48.01;101189.03;5045340;28;70085;-37
2021/04/11 04:13:01;;;;;;;12.65;10.00;;;;;;;32.44;47.93;101190.72;5045805;28;66405;-37
2021/04/11 04:15:55;;;;;;;15.27;9.43;;;;;;;32.27;47.54;101185.03;5064339;28;69622;-37
2021/04/11 04:18:49;;;;;;;21.02;9.73;;;;;;;32.25;46.82;101178.19;5065970;28;66136;-39
2021/04/11 04:21:30;;;;;;;13.75;9.35;;;;;;;32.22;46.18;101181.34;5044321;28;69675;-41
2021/04/11 04:24:25;;;;;;;21.20;9.35;;;;;;;32.20;46.96;101178.00;5043890;28;65598;-38
2021/04/11 04:27:16;;;;;;;19.60;9.57;;;;;;;32.26;46.54;101177.09;5039939;28;69328;-39
2021/04/11 04:30:21;;;;;;;16.33;10.45;;;;;;;32.21;46.52;101171.53;5047894;28;65838;-40
2021/04/11 04:33:29;;;;;;;20.02;10.30;;;;;;;32.06;45.85;101144.72;5066877;28;69260;-37
2021/04/11 04:36:13;;;;;;;21.95;9.73;;;;;;;32.23;45.85;101161.28;5044271;28;65425;-38
2021/04/11 04:39:04;;;;;;;21.52;8.02;;;;;;;32.17;45.25;101159.44;5056318;28;68864;-40
2021/04/11 04:42:06;;;;;;;19.90;7.95;;;;;;;32.08;44.49;101163.50;5045169;28;66234;-37
2021/04/11 04:44:42;;;;;;;9.75;7.25;;;;;;;32.05;44.41;101154.75;5042958;28;69065;-36
2021/04/11 04:47:34;;;;;;;12.32;6.60;;;;;;;31.98;43.28;101148.56;5047016;28;66144;-39
2021/04/11 04:50:13;;;;;;;6.35;5.40;;;;;;;31.96;43.22;101156.09;5043936;28;69872;-37
2021/04/11 04:53:25;;;;;;;6.95;5.40;;;;;;;31.88;42.29;101158.22;5049284;28;66722;-38
2021/04/11 04:56:02;;;;;;;6.13;5.35;;;;;;;31.78;43.01;101126.16;5054121;27;70556;-38
2021/04/11 04:58:42;;;;;;;5.22;4.78;;;;;;;31.76;42.84;101128.25;5030206;28;65930;-38
2021/04/11 05:01:22;;;;;;;5.03;4.40;;;;;;;31.75;41.56;101123.88;5025782;28;70407;-38
2021/04/11 05:04:18;;;;;;;5.30;4.60;;;;;;;31.80;41.68;101129.47;5015207;28;64945;-41
2021/04/11 05:07:00;;;;;;;4.38;4.07;;;;;;;31.81;41.48;101125.69;5033962;28;70228;-38
2021/04/11 05:10:12;;;;;;;4.28;3.47;;;;;;;31.79;41.36;101119.69;5009430;28;65431;-36
2021/04/11 05:13:19;;;;;;;4.53;4.22;;;;;;;31.75;41.40;101115.75;5018525;28;70109;-36
2021/04/11 05:16:54;;;;;;;3.85;3.38;;;;;;;31.69;40.90;101100.34;5008991;28;65940;-37
2021/04/11 05:19:46;;;;;;;3.55;2.90;;;;;;;31.64;39.99;101081.19;5024843;28;68700;-37
2021/04/11 05:22:27;;;;;;;6.88;3.88;;;;;;;31.83;40.53;101097.31;5025177;28;65746;-38
2021/04/11 05:25:31;;;;;;;9.70;3.97;;;;;;;31.94;39.14;101098.50;5030557;28;70283;-37
2021/04/11 05:28:02;;;;;;;7.53;3.92;;;;;;;32.02;39.69;101076.50;5029455;28;67023;-36
2021/04/11 05:31:10;;;;;;;14.63;4.43;;;;;;;32.13;39.43;101079.56;5022528;28;69731;-37
2021/04/11 05:33:42;;;;;;;11.77;3.67;;;;;;;32.24;38.97;101079.63;5027522;28;65341;-37
2021/04/11 05:36:52;;;;;;;12.32;3.53;;;;;;;32.21;38.13;101084.69;5032265;28;69263;-38
2021/04/11 05:39:36;;;;;;;10.23;3.25;;;;;;;32.30;37.61;101068.94;5030160;28;65933;-37
2021/04/11 05:42:37;;;;;;;13.95;3.35;;;;;;;32.34;37.75;101051.94;5029886;28;70424;-41
2021/04/11 05:45:26;;;;;;;5.05;3.17;;;;;;;32.40;38.30;101056.50;5033413;28;66439;-37
2021/04/11 05:48:22;;;;;;;7.93;3.17;;;;;;;32.36;37.64;101049.84;5033269;28;69088;-39
2021/04/11 05:51:04;;;;;;;14.90;3.22;;;;;;;32.40;37.29;101048.34;5029399;28;65621;-37
2021/04/11 05:53:56;;;;;;;3.08;2.88;;;;;;;32.40;37.47;101042.91;5030390;28;70832;-37
2021/04/11 05:56:37;;;;;;;2.33;2.22;;;;;;;32.46;37.36;101033.88;5027804;28;67739;-37
2021/04/11 05:59:38;;;;;;;8.02;2.92;;;;;;;32.37;36.66;101029.78;5034588;28;69621;-36
2021/04/11 06:02:23;;;;;;;7.20;2.45;;;;;;;32.45;36.63;101017.78;5030308;28;66961;-38
2021/04/11 06:05:09;;;;;;;4.22;2.42;;;;;;;32.34;37.40;101005.78;5026792;28;70601;-37
2021/04/11 06:07:52;;;;;;;6.90;2.30;;;;;;;32.42;36.23;101019.06;5025726;28;66171;-37
2021/04/11 06:10:27;;;;;;;2.40;2.20;;;;;;;32.48;36.68;101004.63;5030291;28;70639;-37
2021/04/11 06:13:05;;;;;;;2.28;2.13;;;;;;;32.44;36.61;101016.13;5025335;28;66977;-37
2021/04/11 06:15:49;;;;;;;2.70;2.50;;;;;;;32.32;36.17;100994.34;5029031;28;70556;-38
2021/04/11 06:18:25;;;;;;;2.58;1.90;;;;;;;32.46;36.62;101005.91;5025687;28;65509;-38
2021/04/11 06:21:22;;;;;;;5.72;2.80;;;;;;;32.41;37.39;100989.44;5027782;28;69154;-38
2021/04/11 06:24:20;;;;;;;14.02;3.25;;;;;;;32.46;37.18;100986.91;5033586;28;65952;-36
2021/04/11 06:27:03;;;;;;;5.43;2.72;;;;;;;32.36;37.16;100964.88;5030077;28;70464;-37
2021/04/11 06:29:50;;;;;;;9.45;3.10;;;;;;;32.42;37.96;100975.63;5029111;28;65191;-38
2021/04/11 06:32:24;;;;;;;8.98;2.65;;;;;;;32.34;37.28;100951.50;5030190;28;69969;-37
2021/04/11 06:35:07;;;;;;;7.53;2.47;;;;;;;32.42;37.34;100970.19;5022197;28;65325;-36
2021/04/11 06:37:40;;;;;;;2.75;2.55;;;;;;;32.49;37.59;100964.72;5031420;28;69296;-36
2021/04/11 06:40:36;;;;;;;2.17;2.08;;;;;;;32.49;37.46;100956.59;5025791;28;65615;-36
2021/04/11 06:43:24;;;;;;;3.47;2.10;;;;;;;32.46;37.01;100954.31;5028884;28;70175;-38
2021/04/11 06:46:07;;;;;;;6.43;2.22;;;;;;;32.44;36.67;100957.22;5030450;28;65141;-37
2021/04/11 06:49:05;;;;;;;12.02;2.38;;;;;;;32.44;36.92;100954.50;5024533;28;69358;-38
2021/04/11 06:52:27;;;;;;;3.40;2.03;;;;;;;32.36;36.95;100949.41;5027998;28;65985;-36
2021/04/11 06:55:20;;;;;;;5.60;2.10;;;;;;;32.34;36.59;100939.81;5023691;28;69865;-35
2021/04/11 06:58:10;;;;;;;6.20;2.50;;;;;;;32.33;37.32;100922.72;5027118;28;66342;-40
2021/04/11 07:01:22;;;;;;;7.40;2.22;;;;;;;32.28;37.39;100936.13;5022296;28;69769;-37
2021/04/11 07:04:29;;;;;;;10.63;2.83;;;;;;;32.39;40.28;100932.66;5015623;28;65317;-37
2021/04/11 07:07:36;;;;;;;5.35;4.57;;;;;;;32.37;41.72;100934.75;5029339;28;70118;-36
2021/04/11 07:11:04;;;;;;;8.75;4.20;;;;;;;32.30;42.77;100942.19;5031831;28;65753;-37
2021/04/11 07:13:52;;;;;;;5.47;3.23;;;;;;;32.31;43.72;100935.69;4990234;28;69489;-36
2021/04/11 07:16:56;;;;;;;9.43;3.50;;;;;;;32.35;44.10;100926.03;4974116;28;65983;-37
2021/04/11 07:19:58;;;;;;;3.47;3.17;;;;;;;32.31;43.68;100919.38;5027830;28;69998;-36
2021/04/11 07:22:55;;;;;;;4.38;2.60;;;;;;;32.38;44.64;100925.56;5028870;28;66163;-36
2021/04/11 07:25:53;;;;;;;4.32;2.53;;;;;;;32.42;45.02;100934.06;5028906;28;70760;-36
2021/04/11 07:28:51;;;;;;;3.45;2.70;;;;;;;32.44;45.25;100930.06;5025388;28;64481;-36
2021/04/11 07:32:02;;;;;;;5.82;2.20;;;;;;;32.42;45.79;100934.91;5024609;28;69954;-37
2021/04/11 07:35:04;;;;;;;1.85;1.75;;;;;;;32.39;46.16;100927.22;5023682;28;66192;-37
2021/04/11 07:38:01;;;;;;;5.60;1.98;;;;;;;32.52;45.61;100936.28;5027523;28;69127;-36
2021/04/11 07:40:38;;;;;;;5.35;1.80;;;;;;;32.49;46.04;100927.53;5030390;28;66123;-36
2021/04/11 07:43:53;;;;;;;3.85;1.88;;;;;;;32.56;46.41;100921.19;5012832;28;68868;-36
2021/04/11 07:46:54;;;;;;;2.10;1.55;;;;;;;32.59;46.64;100928.84;5031605;28;66022;-37
2021/04/11 07:49:27;;;;;;;6.38;1.70;;;;;;;32.63;46.28;100924.63;5024003;28;68533;-36
2021/04/11 07:52:19;;;;;;;2.78;2.10;;;;;;;32.63;47.34;100916.50;5029179;28;66339;-36
2021/04/11 07:55:32;;;;;;;3.40;1.92;;;;;;;32.67;48.01;100920.38;5024457;28;69848;-37
2021/04/11 07:58:19;;;;;;;6.60;2.05;;;;;;;32.58;48.09;100894.63;5028511;28;65969;-38
2021/04/11 08:00:52;;;;;;;5.45;2.00;;;;;;;32.74;47.30;100890.44;5031655;28;69297;-37
2021/04/11 08:04:07;;;;;;;3.80;3.50;;;;;;;32.73;48.50;100878.72;5028684;28;65887;-37
2021/04/11 08:07:06;;;;;;;4.72;4.32;;;;;;;32.73;48.79;100873.28;5025409;28;70573;-37
2021/04/11 08:10:03;;;;;;;5.78;5.25;;;;;;;32.77;49.58;100879.91;5028702;28;65262;-38
2021/04/11 08:13:14;;;;;;;8.00;5.05;;;;;;;32.67;49.41;100864.16;5031811;28;69230;-36
2021/04/11 08:16:14;;;;;;;5.70;5.20;;;;;;;32.77;49.84;100881.81;5021422;28;65710;-38
2021/04/11 08:19:05;;;;;;;8.52;5.55;;;;;;;32.82;49.91;100882.75;5022743;28;70057;-37
2021/04/11 08:21:38;;;;;;;10.90;5.68;;;;;;;32.87;49.82;100873.88;5022949;28;65778;-37
2021/04/11 08:24:23;;;;;;;5.68;4.88;;;;;;;32.79;50.30;100868.78;5024539;28;68629;-37
2021/04/11 08:27:02;;;;;;;5.88;5.25;;;;;;;32.89;50.66;100875.31;5019797;28;66138;-36
2021/04/11 08:29:48;;;;;;;10.10;5.45;;;;;;;32.86;50.54;100864.91;5032007;28;69938;-36
2021/04/11 08:33:03;;;;;;;6.90;5.10;;;;;;;32.83;51.48;100872.72;5031696;28;66075;-37
2021/04/11 08:36:08;;;;;;;12.07;7.28;;;;;;;32.94;51.80;100852.88;5034028;28;69848;-37
2021/04/11 08:38:58;;;;;;;21.23;8.43;;;;;;;33.08;51.70;100858.94;5029852;28;66273;-37
2021/04/11 08:41:47;;;;;;;19.65;8.70;;;;;;;33.05;51.82;100848.56;5027888;28;69800;-38
2021/04/11 08:44:29;;;;;;;21.73;8.60;;;;;;;33.18;51.72;100858.34;5029220;28;65913;-38
2021/04/11 08:47:25;;;;;;;38.80;9.27;;;;;;;33.23;51.81;100853.84;5023279;28;69854;-37
2021/04/11 08:50:01;;;;;;;18.70;8.02;;;;;;;33.04;51.31;100830.56;5023502;28;65884;-37
2021/04/11 08:52:58;;;;;;;13.95;8.07;;;;;;;33.24;51.85;100863.69;5030395;28;70779;-38
2021/04/11 08:56:04;;;;;;;21.85;8.02;;;;;;;33.25;52.15;100854.44;5014600;28;65763;-38
2021/04/11 08:59:09;;;;;;;16.25;8.95;;;;;;;33.23;52.25;100856.56;5033600;28;69971;-38
2021/04/11 09:01:48;;;;;;;18.85;8.15;;;;;;;33.29;51.17;100852.06;5028148;28;65223;-38
2021/04/11 09:04:24;;;;;;;35.25;8.05;;;;;;;33.30;51.45;100849.13;5033830;28;69400;-38
2021/04/11 09:07:32;;;;;;;17.02;7.82;;;;;;;33.21;51.16;100836.97;5026323;28;65889;-39
2021/04/11 09:10:13;;;;;;;16.98;8.10;;;;;;;33.37;50.83;100852.53;5023853;28;69193;-38
2021/04/11 09:13:13;;;;;;;11.93;7.60;;;;;;;33.36;50.79;100840.00;5032479;28;66364;-39
2021/04/11 09:16:15;;;;;;;11.63;7.30;;;;;;;33.25;51.08;100849.00;5029272;28;70000;-38
2021/04/11 09:19:12;;;;;;;21.50;7.90;;;;;;;33.42;50.43;100842.84;5006078;28;66191;-37
2021/04/11 09:22:24;;;;;;;12.13;7.82;;;;;;;33.42;51.30;100849.09;5034032;28;69841;-39
2021/04/11 09:25:03;;;;;;;8.13;7.10;;;;;;;33.52;50.92;100860.25;5026931;28;64590;-40
2021/04/11 09:28:01;;;;;;;21.48;10.20;;;;;;;33.51;50.71;100871.31;5040862;28;69259;-40
2021/04/11 09:31:08;;;;;;;32.45;22.65;;;;;;;33.47;50.52;100865.53;5019760;28;65114;-41
2021/04/11 09:33:55;;;;;;;79.47;46.83;;;;;;;33.53;50.51;100877.38;4999202;28;69696;-39
2021/04/11 09:36:43;;;;;;;97.88;59.28;;;;;;;33.53;50.79;100880.94;5022261;28;66072;-37
2021/04/11 09:39:40;;;;;;;127.15;74.07;;;;;;;33.50;50.45;100864.25;5020679;28;69891;-39
2021/04/11 09:42:22;;;;;;;135.52;75.88;;;;;;;33.65;49.66;100872.75;5020718;28;65466;-39
2021/04/11 09:45:15;;;;;;;162.15;90.72;;;;;;;33.69;49.11;100873.94;5019090;28;69621;-38
2021/04/11 09:48:32;;;;;;;218.15;111.93;;;;;;;33.69;48.62;100865.78;5030224;28;65106;-37
2021/04/11 09:51:38;;;;;;;225.45;101.03;;;;;;;33.65;48.67;100858.31;5025945;28;69181;-38
2021/04/11 09:54:08;;;;;;;100.40;46.55;;;;;;;33.71;48.19;100858.22;5032417;28;65914;-35
2021/04/11 09:56:53;;;;;;;60.28;26.73;;;;;;;33.67;48.02;100837.97;5034643;28;69575;-36
2021/04/11 09:59:59;;;;;;;37.05;17.10;;;;;;;33.68;47.85;100831.47;5037752;28;66016;-37
2021/04/11 10:02:56;;;;;;;24.00;12.60;;;;;;;33.64;47.76;100835.75;5035986;28;69182;-36
2021/04/11 10:05:45;;;;;;;27.13;11.80;;;;;;;33.52;48.61;100824.03;5023712;28;65212;-39
2021/04/11 10:08:36;;;;;;;33.15;13.48;;;;;;;33.64;48.65;100851.25;5024349;28;68974;-39
2021/04/11 10:11:24;;;;;;;28.50;16.45;;;;;;;33.61;48.01;100847.09;5035890;28;66507;-38
2021/04/11 10:14:09;;;;;;;30.30;13.25;;;;;;;33.59;48.01;100855.50;5016163;28;69195;-37
2021/04/11 10:16:53;;;;;;;17.15;10.27;;;;;;;33.63;48.06;100866.75;5026298;28;65463;-36
2021/04/11 10:19:32;;;;;;;19.08;8.73;;;;;;;33.55;47.90;100876.09;5033900;28;69339;-36
2021/04/11 10:22:10;;;;;;;11.88;8.85;;;;;;;33.54;47.57;100879.88;5036672;28;66682;-36
2021/04/11 10:25:05;;;;;;;12.50;8.02;;;;;;;33.37;47.37;100866.13;5020446;28;69903;-37
2021/04/11 10:28:13;;;;;;;16.65;8.63;;;;;;;33.51;48.41;100882.19;5032696;28;66069;-37
2021/04/11 10:30:49;;;;;;;19.92;8.65;;;;;;;33.47;48.75;100878.31;5008425;28;70460;-38
2021/04/11 10:33:39;;;;;;;38.17;9.18;;;;;;;33.50;48.64;100884.09;5032451;28;66353;-36
2021/04/11 10:36:36;;;;;;;20.98;8.75;;;;;;;33.38;49.17;100858.81;5031577;28;69250;-34
2021/04/11 10:39:30;;;;;;;16.98;7.93;;;;;;;33.41;49.14;100873.84;5023577;28;65667;-32
2021/04/11 10:42:21;;;;;;;19.05;7.93;;;;;;;33.33;48.92;100864.97;5028706;28;70109;-33
2021/04/11 10:45:01;;;;;;;19.33;8.55;;;;;;;33.41;48.87;100876.56;5026669;28;66274;-31
2021/04/11 10:47:51;;;;;;;19.00;8.20;;;;;;;33.36;48.67;100894.41;5033996;28;68856;-29
2021/04/11 10:50:44;;;;;;;15.25;8.32;;;;;;;33.31;48.67;100891.56;5036799;28;66040;-29
2021/04/11 10:53:17;;;;;;;14.95;8.35;;;;;;;33.42;49.18;100903.50;5021862;28;70104;-28
2021/04/11 10:56:24;;;;;;;22.42;8.48;;;;;;;33.38;49.39;100903.16;5025193;28;66000;-30
2021/04/11 10:59:22;;;;;;;20.45;9.10;;;;;;;33.38;49.10;100905.88;5027532;28;69149;-29
2021/04/11 11:02:07;;;;;;;17.45;9.85;;;;;;;33.38;48.93;100914.03;5024283;28;65893;-29
2021/04/11 11:05:26;;;;;;;16.33;9.45;;;;;;;33.29;49.30;100922.75;5036946;28;70763;-27
2021/04/11 11:08:35;;;;;;;16.85;8.18;;;;;;;33.24;48.76;100931.63;5021957;28;65991;-29
2021/04/11 11:11:17;;;;;;;22.20;7.00;;;;;;;32.80;47.93;100922.91;5005196;28;69917;-29
2021/04/11 11:14:16;;;;;;;15.48;7.18;;;;;;;32.34;48.07;100928.97;5032131;28;66302;-29
2021/04/11 11:17:07;;;;;;;10.55;5.95;;;;;;;32.25;46.96;100939.31;5030905;28;69679;-29
2021/04/11 11:19:56;;;;;;;17.75;6.35;;;;;;;32.35;45.71;100947.75;5022628;28;66669;-30
2021/04/11 11:22:50;;;;;;;6.43;5.22;;;;;;;32.49;44.09;100943.81;5023121;28;69773;-30
2021/04/11 11:25:29;;;;;;;6.75;4.65;;;;;;;32.61;42.41;100951.19;5038294;28;65778;-29
2021/04/11 11:28:15;;;;;;;11.95;4.68;;;;;;;32.55;40.18;100952.13;5053438;28;68977;-29
2021/04/11 11:31:07;;;;;;;3.97;3.67;;;;;;;32.49;39.92;100948.44;5036439;28;65597;-30
2021/04/11 11:33:55;;;;;;;;;;;;;;;32.49;39.83;100943.81;5024522;28;70123;-28
2021/04/11 11:36:52;;;;;;;4.47;3.83;;;;;;;32.42;38.21;100956.63;5017254;28;65880;-30
2021/04/11 11:39:46;;;;;;;4.18;3.03;;;;;;;32.35;37.24;100963.22;5031580;28;69694;-30
2021/04/11 11:42:52;;;;;;;3.15;2.88;;;;;;;32.23;37.58;100960.41;5035248;28;65445;-29
2021/04/11 11:45:42;;;;;;;2.67;2.47;;;;;;;32.09;36.83;100973.31;5029738;28;70545;-29
2021/04/11 11:48:25;;;;;;;2.55;2.35;;;;;;;32.15;35.93;100979.72;5025367;28;66706;-28
2021/04/11 11:51:11;;;;;;;2.30;2.10;;;;;;;31.96;35.29;100982.44;5026627;28;70667;-30
2021/04/11 11:53:53;;;;;;;2.00;1.90;;;;;;;31.99;36.86;100982.00;5024142;28;66091;-29
2021/04/11 11:56:34;;;;;;;2.15;1.95;;;;;;;31.92;35.96;100981.22;5032756;28;69388;-29
2021/04/11 11:59:27;;;;;;;2.03;1.92;;;;;;;31.84;35.00;100984.19;5031129;28;65748;-28
2021/04/11 12:02:26;;;;;;;2.08;1.95;;;;;;;31.75;35.60;100974.69;5028690;28;69965;-29
2021/04/11 12:04:59;;;;;;;2.03;1.85;;;;;;;31.73;35.78;100974.94;5032163;28;66482;-29
2021/04/11 12:07:56;;;;;;;1.55;1.45;;;;;;;31.72;35.26;100981.41;5025327;28;68988;-29
2021/04/11 12:10:30;;;;;;;1.75;1.65;;;;;;;31.64;34.86;100972.72;5026308;28;65276;-29
2021/04/11 12:13:30;;;;;;;2.22;1.70;;;;;;;31.43;35.15;100955.81;5035114;28;69925;-29
2021/04/11 12:16:26;;;;;;;1.77;1.63;;;;;;;31.39;33.65;100970.88;5030130;28;66321;-29
2021/04/11 12:19:05;;;;;;;1.52;1.42;;;;;;;31.40;33.56;100983.38;5021324;28;69646;-29
2021/04/11 12:21:47;;;;;;;2.10;1.90;;;;;;;31.39;33.64;100987.13;5033553;28;65753;-31
2021/04/11 12:24:24;;;;;;;1.63;1.50;;;;;;;31.33;34.73;100985.28;5020026;28;69756;-29
2021/04/11 12:26:57;;;;;;;1.88;1.70;;;;;;;31.13;34.13;100970.00;5025290;28;65326;-29
2021/04/11 12:29:32;;;;;;;1.70;1.60;;;;;;;31.27;34.16;100988.88;5026818;28;70980;-30
2021/04/11 12:32:16;;;;;;;1.63;1.52;;;;;;;31.02;33.37;100970.69;5021635;28;65223;-29
2021/04/11 12:35:19;;;;;;;1.40;1.30;;;;;;;31.03;33.47;100976.94;5032356;28;69235;-28
2021/04/11 12:38:03;;;;;;;1.80;1.70;;;;;;;31.12;33.74;100997.31;5025943;28;64678;-29
2021/04/11 12:40:42;;;;;;;1.83;1.73;;;;;;;31.06;33.28;100993.59;5028074;28;69649;-28
2021/04/11 12:43:39;;;;;;;1.70;1.60;;;;;;;30.80;33.80;100956.69;5030404;28;65972;-29
2021/04/11 12:46:42;;;;;;;1.73;1.63;;;;;;;30.76;33.93;100973.53;5034934;28;69043;-30
2021/04/11 12:49:15;;;;;;;1.63;1.52;;;;;;;30.79;34.00;100992.09;5031692;28;65437;-29
2021/04/11 12:52:15;;;;;;;1.67;1.58;;;;;;;30.69;32.98;100996.06;5026693;28;69367;-30
2021/04/11 12:54:48;;;;;;;1.60;1.50;;;;;;;30.90;33.33;101026.63;5027841;28;66059;-30
2021/04/11 12:57:23;;;;;;;1.55;1.42;;;;;;;30.87;33.65;101032.47;5028460;28;70129;-28
2021/04/11 13:00:12;;;;;;;1.40;1.25;;;;;;;30.77;33.52;101016.66;5028144;28;65923;-28
2021/04/11 13:02:52;;;;;;;1.67;1.50;;;;;;;30.86;32.80;101025.41;5027742;28;69838;-29
2021/04/11 13:06:05;;;;;;;4.82;1.75;;;;;;;30.80;34.91;101031.69;5030387;28;65728;-29
2021/04/11 13:09:31;;;;;;;6.78;3.20;;;;;;;30.73;38.41;101042.53;5029503;28;70569;-29
2021/04/11 13:12:33;;;;;;;12.77;3.10;;;;;;;30.61;40.01;101052.34;4996827;28;65579;-28
2021/04/11 13:15:23;;;;;;;6.00;2.70;;;;;;;30.61;40.85;101050.47;5004554;28;69327;-29
2021/04/11 13:18:20;;;;;;;15.45;2.95;;;;;;;30.41;41.01;101014.53;5011793;28;67168;-29